Terminal Aerodrome Forecast
Issued by NWS

Home | Current Version | Previous Version | Text Only | Print | Product List | Glossary On
Versions: 1 2 3 4 5 6 7 8 9 10 11 12 13 14 15 16 17 18 19 20
000
FTUS46 KSGX 281127
TAFPSP
TAF
KPSP 281127Z 2812/0112 VRB04KT P6SM SCT020 BKN025
      TEMPO 2812/2815 3SM BR SCT025
     FM281600 VRB05KT P6SM SCT025
     FM282200 33008KT P6SM SKC=

USA.gov is the U.S. government's official web portal to all federal, state and local government web resources and services.